createdAt,value
2022-08-04T00:01:39.461Z,97039.63
2022-08-04T00:04:15.034Z,97039.28
2022-08-04T00:06:53.456Z,97037.44
2022-08-04T00:09:31.060Z,97038.97
2022-08-04T00:11:58.720Z,97033.25
2022-08-04T00:14:26.315Z,97034.88
2022-08-04T00:16:54.535Z,97031.66
2022-08-04T00:19:33.131Z,97030.50
2022-08-04T00:22:09.442Z,97026.13
2022-08-04T00:24:37.407Z,97029.16
2022-08-04T00:27:04.328Z,97022.94
2022-08-04T00:29:31.175Z,97028.34
2022-08-04T00:31:58.157Z,97024.31
2022-08-04T00:34:27.416Z,97025.13
2022-08-04T00:36:55.489Z,97028.84
2022-08-04T00:39:22.792Z,97026.09
2022-08-04T00:42:30.048Z,97019.13
2022-08-04T00:45:18.223Z,97031.41
2022-08-04T00:48:02.844Z,97025.03
2022-08-04T00:51:02.712Z,97022.25
2022-08-04T00:53:59.506Z,97019.47
2022-08-04T00:56:59.423Z,97023.59
2022-08-04T00:59:52.677Z,97021.88
2022-08-04T01:02:29.636Z,97021.25
2022-08-04T01:05:04.191Z,97019.63
2022-08-04T01:07:30.693Z,97008.50
2022-08-04T01:10:15.505Z,97015.22
2022-08-04T01:13:17.671Z,97007.78
2022-08-04T01:16:00.346Z,97011.75
2022-08-04T01:18:54.754Z,97004.56
2022-08-04T01:21:30.572Z,97011.19
2022-08-04T01:23:57.076Z,97002.75
2022-08-04T01:26:53.729Z,97004.72
2022-08-04T01:29:29.301Z,96993.03
2022-08-04T01:32:20.962Z,96997.09
2022-08-04T01:34:58.767Z,96998.84
2022-08-04T01:37:38.119Z,96997.31
2022-08-04T01:40:07.188Z,97001.38
2022-08-04T01:42:35.318Z,96998.50
2022-08-04T01:45:12.076Z,96995.59
2022-08-04T01:47:42.769Z,96995.47
2022-08-04T01:50:12.563Z,96989.31
2022-08-04T01:52:40.791Z,96994.41
2022-08-04T01:55:10.282Z,96975.06
2022-08-04T01:57:48.386Z,96986.88
2022-08-04T02:00:23.043Z,96982.59
2022-08-04T02:02:51.369Z,96974.50
2022-08-04T02:05:20.535Z,96978.78
2022-08-04T02:08:04.968Z,96982.25
2022-08-04T02:11:02.490Z,96980.63
2022-08-04T02:13:38.921Z,96972.28
2022-08-04T02:16:23.998Z,96974.97
2022-08-04T02:19:14.982Z,96964.75
2022-08-04T02:21:42.585Z,96961.16
2022-08-04T02:24:14.769Z,96969.72
2022-08-04T02:26:43.305Z,96960.81
2022-08-04T02:29:32.030Z,96960.34
2022-08-04T02:32:05.695Z,96951.31
2022-08-04T02:34:39.483Z,96961.75
2022-08-04T02:37:06.294Z,96948.06
2022-08-04T02:39:42.447Z,96952.81
2022-08-04T02:42:15.632Z,96951.75
2022-08-04T02:44:43.532Z,96944.66
2022-08-04T02:47:11.024Z,96951.38
2022-08-04T02:49:37.934Z,96947.22
2022-08-04T02:52:10.975Z,96944.06
2022-08-04T02:54:42.955Z,96942.84
2022-08-04T02:57:12.228Z,96943.63
2022-08-04T03:00:01.721Z,96942.59
2022-08-04T03:03:06.408Z,96933.31
2022-08-04T03:06:01.980Z,96923.69
2022-08-04T03:09:01.693Z,96930.88
2022-08-04T03:11:46.998Z,96921.84
2022-08-04T03:14:32.671Z,96932.59
2022-08-04T03:17:08.370Z,96933.53
2022-08-04T03:20:08.994Z,96932.72
2022-08-04T03:23:12.431Z,96932.97
2022-08-04T03:26:03.176Z,96929.47
2022-08-04T03:29:08.174Z,96929.25
2022-08-04T03:31:40.810Z,96927.19
2022-08-04T03:34:19.594Z,96928.88
2022-08-04T03:36:49.148Z,96930.75
2022-08-04T03:39:30.207Z,96930.63
2022-08-04T03:42:38.402Z,96927.97
2022-08-04T03:45:23.139Z,96916.72
2022-08-04T03:47:53.343Z,96920.53
2022-08-04T03:50:41.828Z,96921.94
2022-08-04T03:53:31.862Z,96927.97
2022-08-04T03:56:16.635Z,96924.84
2022-08-04T03:58:46.139Z,96931.19
2022-08-04T04:01:26.730Z,96914.06
2022-08-04T04:04:12.603Z,96916.63
2022-08-04T04:06:42.091Z,96920.09
2022-08-04T04:09:28.775Z,96915.31
2022-08-04T04:12:42.851Z,96922.28
2022-08-04T04:15:53.828Z,96915.69
2022-08-04T04:18:56.220Z,96910.81
2022-08-04T04:21:25.663Z,96922.06
2022-08-04T04:23:52.154Z,96911.41
2022-08-04T04:26:27.507Z,96914.28
2022-08-04T04:29:09.302Z,96909.78
2022-08-04T04:32:06.046Z,96918.25
2022-08-04T04:34:46.264Z,96911.63
2022-08-04T04:37:30.678Z,96915.13
2022-08-04T04:40:07.480Z,96916.72
2022-08-04T04:42:55.812Z,96920.31
2022-08-04T04:45:36.549Z,96912.44
2022-08-04T04:48:34.810Z,96920.44
2022-08-04T04:51:16.537Z,96917.53
2022-08-04T04:54:19.785Z,96916.50
2022-08-04T04:56:50.698Z,96916.75
2022-08-04T04:59:21.046Z,96910.75
2022-08-04T05:02:29.559Z,96916.19
2022-08-04T05:05:14.341Z,96913.59
2022-08-04T05:08:43.542Z,96910.66
2022-08-04T05:11:29.464Z,96916.47
2022-08-04T05:14:34.755Z,96910.28
2022-08-04T05:16:57.130Z,96918.16
2022-08-04T05:19:45.359Z,96921.69
2022-08-04T05:22:21.339Z,96916.47
2022-08-04T05:24:49.608Z,96908.94
2022-08-04T05:27:24.114Z,96909.84
2022-08-04T05:29:53.487Z,96914.72
2022-08-04T05:32:24.126Z,96914.53
2022-08-04T05:34:58.465Z,96912.41
2022-08-04T05:37:28.320Z,96913.81
2022-08-04T05:39:58.892Z,96914.44
2022-08-04T05:42:26.582Z,96910.13
2022-08-04T05:44:54.578Z,96913.38
2022-08-04T05:47:22.441Z,96909.72
2022-08-04T05:49:55.618Z,96910.03
2022-08-04T05:52:30.180Z,96906.53
2022-08-04T05:54:58.900Z,96914.59
2022-08-04T05:57:26.243Z,96913.75
2022-08-04T05:59:53.799Z,96905.25
2022-08-04T06:02:20.679Z,96917.22
2022-08-04T06:04:50.138Z,96915.75
2022-08-04T06:07:17.287Z,96910.69
2022-08-04T06:09:43.911Z,96916.50
2022-08-04T06:12:27.054Z,96911.44
2022-08-04T06:14:59.707Z,96919.97
2022-08-04T06:18:33.110Z,96914.19
2022-08-04T06:20:23.928Z,96909.38
2022-08-04T06:22:54.549Z,96918.44
2022-08-04T06:25:24.288Z,96909.72
2022-08-04T06:27:51.998Z,96907.16
2022-08-04T06:30:19.924Z,96912.59
2022-08-04T06:32:48.101Z,96906.81
2022-08-04T06:35:17.778Z,96918.88
2022-08-04T06:37:45.723Z,96915.84
2022-08-04T06:40:31.783Z,96917.16
2022-08-04T06:43:04.195Z,96921.38
2022-08-04T06:45:31.553Z,96914.59
2022-08-04T06:47:58.532Z,96906.47
2022-08-04T06:51:24.725Z,96919.56
2022-08-04T06:53:11.880Z,96923.41
2022-08-04T06:55:38.520Z,96913.75
2022-08-04T06:58:06.240Z,96919.38
2022-08-04T07:00:34.502Z,96899.09
2022-08-04T07:03:01.538Z,96912.75
2022-08-04T07:05:28.549Z,96913.13
2022-08-04T07:07:57.085Z,96907.91
2022-08-04T07:10:25.720Z,96918.38
2022-08-04T07:12:53.031Z,96912.53
2022-08-04T07:15:20.830Z,96913.22
2022-08-04T07:17:51.976Z,96910.72
2022-08-04T07:20:34.167Z,96919.47
2022-08-04T07:23:06.307Z,96909.59
2022-08-04T07:25:58.720Z,96912.72
2022-08-04T07:28:24.762Z,96909.47
2022-08-04T07:30:51.467Z,96911.50
2022-08-04T07:33:18.622Z,96900.88
2022-08-04T07:36:04.393Z,96904.88
2022-08-04T07:38:33.289Z,96903.47
2022-08-04T07:41:03.898Z,96906.34
2022-08-04T07:43:31.345Z,96904.13
2022-08-04T07:45:57.916Z,96908.75
2022-08-04T07:48:24.476Z,96904.16
2022-08-04T07:50:51.214Z,96899.59
2022-08-04T07:53:55.372Z,96907.75
2022-08-04T07:56:05.200Z,96901.38
2022-08-04T07:58:32.101Z,96901.16
2022-08-04T08:00:58.865Z,96903.47
2022-08-04T08:03:26.108Z,96908.44
2022-08-04T08:05:54.558Z,96901.69
2022-08-04T08:08:40.068Z,96897.56
2022-08-04T08:11:10.850Z,96907.97
2022-08-04T08:13:37.435Z,96907.19
2022-08-04T08:16:05.014Z,96900.81
2022-08-04T08:18:32.169Z,96900.81
2022-08-04T08:20:58.816Z,96911.84
2022-08-04T08:23:26.237Z,96902.38
2022-08-04T08:25:52.927Z,96903.22
2022-08-04T08:28:19.557Z,96899.88
2022-08-04T08:30:46.130Z,96894.22
2022-08-04T08:33:20.798Z,96897.28
2022-08-04T08:36:04.502Z,96908.66
2022-08-04T08:38:52.824Z,96912.19
2022-08-04T08:41:34.696Z,96904.16
2022-08-04T08:44:43.443Z,96898.56
2022-08-04T08:47:09.917Z,96903.63
2022-08-04T08:50:04.387Z,96908.44
2022-08-04T08:52:56.207Z,96907.78
2022-08-04T08:55:40.033Z,96902.69
2022-08-04T08:58:14.462Z,96908.94
2022-08-04T09:00:53.120Z,96908.53
2022-08-04T09:03:57.237Z,96903.22
2022-08-04T09:06:26.806Z,96905.69
2022-08-04T09:09:05.544Z,96903.16
2022-08-04T09:11:46.482Z,96905.75
2022-08-04T09:14:20.658Z,96912.78
2022-08-04T09:16:54.241Z,96913.03
2022-08-04T09:19:38.259Z,96911.66
2022-08-04T09:22:19.852Z,96907.09
2022-08-04T09:24:52.921Z,96903.13
2022-08-04T09:27:28.785Z,96897.28
2022-08-04T09:30:05.715Z,96891.44
2022-08-04T09:32:35.246Z,96904.44
2022-08-04T09:35:26.102Z,96900.56
2022-08-04T09:38:11.944Z,96905.19
2022-08-04T09:40:53.148Z,96906.16
2022-08-04T09:43:59.270Z,96886.91
2022-08-04T09:46:47.074Z,96903.53
2022-08-04T09:49:21.926Z,96902.53
2022-08-04T09:51:57.261Z,96893.75
2022-08-04T09:54:42.798Z,96901.03
2022-08-04T09:57:17.503Z,96893.16
2022-08-04T10:00:04.042Z,96893.78
2022-08-04T10:02:45.327Z,96883.78
2022-08-04T10:05:21.128Z,96883.00
2022-08-04T10:08:16.309Z,96891.44
2022-08-04T10:10:56.235Z,96886.69
2022-08-04T10:13:25.620Z,96873.25
2022-08-04T10:16:12.251Z,96884.78
2022-08-04T10:18:50.875Z,96879.00
2022-08-04T10:21:17.413Z,96879.25
2022-08-04T10:24:00.434Z,96885.25
2022-08-04T10:26:43.326Z,96886.94
2022-08-04T10:29:17.326Z,96892.84
2022-08-04T10:32:13.407Z,96886.13
2022-08-04T10:34:44.379Z,96888.25
2022-08-04T10:37:20.590Z,96888.34
2022-08-04T10:40:13.938Z,96879.81
2022-08-04T10:42:50.493Z,96880.81
2022-08-04T10:45:19.833Z,96874.13
2022-08-04T10:48:01.545Z,96882.38
2022-08-04T10:50:29.024Z,96878.50
2022-08-04T10:53:01.182Z,96882.25
2022-08-04T10:56:06.952Z,96881.78
2022-08-04T10:58:48.680Z,96876.56
2022-08-04T11:02:00.962Z,96890.97
2022-08-04T11:04:12.620Z,96884.69
2022-08-04T11:06:40.232Z,96879.06
2022-08-04T11:09:07.516Z,96880.03
2022-08-04T11:12:00.179Z,96881.41
2022-08-04T11:14:39.052Z,96882.13
2022-08-04T11:17:08.515Z,96882.59
2022-08-04T11:19:53.161Z,96880.69
2022-08-04T11:22:22.943Z,96873.75
2022-08-04T11:25:21.713Z,96877.41
2022-08-04T11:28:02.943Z,96874.53
2022-08-04T11:30:58.250Z,96877.41
2022-08-04T11:33:28.551Z,96879.38
2022-08-04T11:36:33.142Z,96890.56
2022-08-04T11:39:11.381Z,96885.59
2022-08-04T11:41:42.598Z,96876.94
2022-08-04T11:44:13.033Z,96885.50
2022-08-04T11:46:42.492Z,96892.88
2022-08-04T11:49:16.937Z,96900.66
2022-08-04T11:51:44.796Z,96902.38
2022-08-04T11:54:12.347Z,96893.03
2022-08-04T11:56:38.913Z,96911.97
2022-08-04T11:59:08.262Z,96903.38
2022-08-04T12:01:48.732Z,96901.56
2022-08-04T12:04:50.672Z,96906.66
2022-08-04T12:07:30.405Z,96912.69
2022-08-04T12:10:16.015Z,96907.44
2022-08-04T12:13:23.740Z,96920.75
2022-08-04T12:16:17.586Z,96918.50
2022-08-04T12:19:15.491Z,96911.97
2022-08-04T12:21:53.188Z,96916.78
2022-08-04T12:24:26.696Z,96903.03
2022-08-04T12:26:56.555Z,96922.91
2022-08-04T12:29:24.257Z,96906.16
2022-08-04T12:32:28.525Z,96913.44
2022-08-04T12:35:04.450Z,96909.34
2022-08-04T12:38:04.977Z,96905.25
2022-08-04T12:40:41.291Z,96908.63
2022-08-04T12:43:25.395Z,96907.50
2022-08-04T12:45:54.273Z,96903.53
2022-08-04T12:48:23.060Z,96909.09
2022-08-04T12:50:54.342Z,96905.06
2022-08-04T12:53:32.218Z,96905.53
2022-08-04T12:56:01.680Z,96903.94
2022-08-04T12:58:42.600Z,96907.84
2022-08-04T13:02:08.058Z,96904.56
2022-08-04T13:04:18.415Z,96902.91
2022-08-04T13:06:45.142Z,96899.97
2022-08-04T13:09:18.281Z,96890.97
2022-08-04T13:11:51.739Z,96887.22
2022-08-04T13:14:27.054Z,96899.81
2022-08-04T13:17:01.746Z,96899.53
2022-08-04T13:19:29.692Z,96901.94
2022-08-04T13:22:03.284Z,96901.75
2022-08-04T13:24:37.598Z,96893.50
2022-08-04T13:27:21.527Z,96889.91
2022-08-04T13:29:57.693Z,96888.81
2022-08-04T13:32:28.654Z,96883.63
2022-08-04T13:34:56.446Z,96875.47
2022-08-04T13:37:31.749Z,96858.16
2022-08-04T13:39:59.610Z,96869.63
2022-08-04T13:42:27.240Z,96858.09
2022-08-04T13:44:57.230Z,96872.38
2022-08-04T13:47:34.922Z,96881.72
2022-08-04T13:50:11.788Z,96883.16
2022-08-04T13:52:40.825Z,96887.59
2022-08-04T13:55:08.169Z,96893.88
2022-08-04T13:57:44.468Z,96887.16
2022-08-04T14:00:12.176Z,96886.91
2022-08-04T14:02:47.713Z,96872.00
2022-08-04T14:05:27.056Z,96877.56
2022-08-04T14:08:12.334Z,96860.50
2022-08-04T14:10:39.941Z,96862.19
2022-08-04T14:13:07.179Z,96863.97
2022-08-04T14:16:02.443Z,96873.69
2022-08-04T14:18:32.077Z,96868.59
2022-08-04T14:20:59.287Z,96868.16
2022-08-04T14:23:31.727Z,96861.28
2022-08-04T14:25:59.682Z,96865.09
2022-08-04T14:29:08.470Z,96859.41
2022-08-04T14:31:20.487Z,96856.38
2022-08-04T14:34:02.006Z,96856.19
2022-08-04T14:37:13.192Z,96863.44
2022-08-04T14:40:17.952Z,96860.50
2022-08-04T14:42:53.760Z,96863.75
2022-08-04T14:45:32.033Z,96865.94
2022-08-04T14:47:59.263Z,96868.81
2022-08-04T14:50:40.349Z,96871.03
2022-08-04T14:53:19.092Z,96872.25
2022-08-04T14:55:48.107Z,96867.16
2022-08-04T14:58:36.168Z,96871.69
2022-08-04T15:01:10.739Z,96872.03
2022-08-04T15:03:50.452Z,96871.31
2022-08-04T15:06:27.299Z,96865.72
2022-08-04T15:08:56.835Z,96870.50
2022-08-04T15:11:24.578Z,96868.88
2022-08-04T15:13:55.753Z,96870.03
2022-08-04T15:16:23.648Z,96874.91
2022-08-04T15:18:50.962Z,96873.31
2022-08-04T15:21:21.203Z,96880.84
2022-08-04T15:23:48.492Z,96874.94
2022-08-04T15:26:42.078Z,96877.31
2022-08-04T15:29:16.831Z,96871.94
2022-08-04T15:32:05.838Z,96872.06
2022-08-04T15:34:47.237Z,96870.66
2022-08-04T15:37:23.007Z,96870.16
2022-08-04T15:40:07.671Z,96871.16
2022-08-04T15:43:00.384Z,96881.56
2022-08-04T15:46:37.122Z,96871.63
2022-08-04T15:48:17.582Z,96867.59
2022-08-04T15:50:56.808Z,96879.97
2022-08-04T15:54:01.166Z,96877.69
2022-08-04T15:56:24.147Z,96884.84
2022-08-04T15:58:55.127Z,96876.56
2022-08-04T16:01:22.024Z,96883.16
2022-08-04T16:04:00.278Z,96887.63
2022-08-04T16:06:29.873Z,96878.97
2022-08-04T16:09:00.976Z,96882.84
2022-08-04T16:11:32.549Z,96883.78
2022-08-04T16:13:59.687Z,96883.78
2022-08-04T16:16:29.754Z,96884.72
2022-08-04T16:19:19.695Z,96879.63
2022-08-04T16:21:51.073Z,96882.19
2022-08-04T16:24:22.672Z,96888.72
2022-08-04T16:26:56.463Z,96869.34
2022-08-04T16:29:23.347Z,96876.44
2022-08-04T16:32:05.545Z,96872.63
2022-08-04T16:34:48.594Z,96871.97
2022-08-04T16:37:18.983Z,96870.53
2022-08-04T16:39:50.533Z,96875.19
2022-08-04T16:42:30.463Z,96880.31
2022-08-04T16:45:11.616Z,96880.44
2022-08-04T16:47:47.417Z,96889.09
2022-08-04T16:50:18.389Z,96887.78
2022-08-04T16:52:46.736Z,96885.19
2022-08-04T16:55:18.398Z,96888.53
2022-08-04T16:57:53.694Z,96886.06
2022-08-04T17:00:36.756Z,96885.00
2022-08-04T17:03:09.171Z,96898.22
2022-08-04T17:05:38.648Z,96894.44
2022-08-04T17:08:29.242Z,96894.19
2022-08-04T17:10:54.196Z,96901.09
2022-08-04T17:14:02.930Z,96896.19
2022-08-04T17:16:21.025Z,96913.63
2022-08-04T17:18:49.606Z,96927.06
2022-08-04T17:21:20.360Z,96937.25
2022-08-04T17:24:14.988Z,96955.09
2022-08-04T17:26:40.188Z,96971.72
2022-08-04T17:29:08.599Z,96980.50
2022-08-04T17:31:38.093Z,96975.19
2022-08-04T17:34:16.052Z,96979.88
2022-08-04T17:36:46.170Z,96975.59
2022-08-04T17:39:17.682Z,96984.69
2022-08-04T17:41:48.702Z,96967.44
2022-08-04T17:44:16.392Z,96971.94
2022-08-04T17:46:45.595Z,96959.94
2022-08-04T17:49:16.957Z,96946.63
2022-08-04T17:52:05.705Z,96931.72
2022-08-04T17:54:37.367Z,96932.97
2022-08-04T18:00:04.305Z,96898.59
2022-08-04T18:02:34.439Z,96904.13
2022-08-04T18:05:07.925Z,96907.91
2022-08-04T18:08:38.623Z,96895.56
2022-08-04T18:10:54.770Z,96892.66
2022-08-04T18:13:27.214Z,96884.91
2022-08-04T18:16:03.947Z,96888.44
2022-08-04T18:18:30.685Z,96880.69
2022-08-04T18:21:02.619Z,96884.44
2022-08-04T18:23:31.705Z,96892.78
2022-08-04T18:25:59.578Z,96902.22
2022-08-04T18:28:30.854Z,96895.25
2022-08-04T18:31:00.039Z,96896.84
2022-08-04T18:33:39.703Z,96886.91
2022-08-04T18:36:35.338Z,96883.16
2022-08-04T18:39:12.461Z,96880.72
2022-08-04T18:44:29.458Z,96886.63
2022-08-04T18:46:57.915Z,96889.03
2022-08-04T18:50:58.964Z,96890.41
2022-08-04T18:52:31.214Z,96899.28
2022-08-04T18:54:57.746Z,96890.94
2022-08-04T18:57:59.131Z,96900.91
2022-08-04T19:00:16.271Z,96897.66
2022-08-04T19:02:46.499Z,96903.25
2022-08-04T19:05:17.365Z,96906.50
2022-08-04T19:08:01.408Z,96908.09
2022-08-04T19:10:29.497Z,96908.91
2022-08-04T19:12:56.306Z,96916.44
2022-08-04T19:15:34.877Z,96931.22
2022-08-04T19:18:02.376Z,96929.25
2022-08-04T19:20:33.663Z,96932.19
2022-08-04T19:24:10.811Z,96930.56
2022-08-04T19:26:01.221Z,96928.97
2022-08-04T19:28:34.987Z,96947.22
2022-08-04T19:31:09.496Z,96950.16
2022-08-04T19:33:59.414Z,96953.09
2022-08-04T19:36:27.968Z,96956.84
2022-08-04T19:39:00.356Z,96951.97
2022-08-04T19:41:29.446Z,96966.47
2022-08-04T19:43:57.894Z,96955.63
2022-08-04T19:46:27.843Z,96963.09
2022-08-04T19:48:59.093Z,96963.38
2022-08-04T19:51:28.337Z,96964.94
2022-08-04T19:54:02.532Z,96962.00
2022-08-04T19:56:39.984Z,96964.13
2022-08-04T19:59:08.166Z,96970.59
2022-08-04T20:01:43.733Z,96952.91
2022-08-04T20:04:11.687Z,96965.75
2022-08-04T20:06:39.393Z,96968.66
2022-08-04T20:09:26.062Z,96965.16
2022-08-04T20:11:53.043Z,96968.38
2022-08-04T20:14:20.114Z,96960.25
2022-08-04T20:16:58.949Z,96966.66
2022-08-04T20:19:25.742Z,96970.66
2022-08-04T20:21:56.512Z,96975.97
2022-08-04T20:24:39.944Z,96970.28
2022-08-04T20:27:14.661Z,96960.53
2022-08-04T20:29:49.512Z,96956.16
2022-08-04T20:32:26.798Z,96957.47
2022-08-04T20:34:54.975Z,96957.19
2022-08-04T20:37:23.505Z,96973.72
2022-08-04T20:39:58.066Z,96981.56
2022-08-04T20:42:33.776Z,96978.63
2022-08-04T20:45:01.464Z,96983.19
2022-08-04T20:47:34.964Z,96983.75
2022-08-04T20:50:04.320Z,96991.75
2022-08-04T20:52:33.092Z,96984.91
2022-08-04T20:55:04.371Z,96992.38
2022-08-04T20:57:48.641Z,96996.44
2022-08-04T21:00:26.242Z,97015.19
2022-08-04T21:02:57.228Z,97019.44
2022-08-04T21:05:23.798Z,97018.88
2022-08-04T21:07:56.587Z,97020.19
2022-08-04T21:10:26.851Z,97022.94
2022-08-04T21:12:54.359Z,97022.13
2022-08-04T21:15:25.649Z,97030.66
2022-08-04T21:17:59.191Z,97019.44
2022-08-04T21:20:32.445Z,97032.09
2022-08-04T21:23:01.989Z,97018.66
2022-08-04T21:25:29.462Z,97020.88
2022-08-04T21:27:58.865Z,97017.63
2022-08-04T21:30:30.714Z,97016.53
2022-08-04T21:32:57.278Z,97026.72
2022-08-04T21:35:37.013Z,97020.00
2022-08-04T21:38:16.586Z,97039.56
2022-08-04T21:40:57.760Z,97044.44
2022-08-04T21:43:27.325Z,97032.34
2022-08-04T21:45:55.644Z,97043.88
2022-08-04T21:48:22.760Z,97043.25
2022-08-04T21:50:50.774Z,97047.25
2022-08-04T21:53:19.544Z,97045.69
2022-08-04T21:56:06.773Z,97058.25
2022-08-04T21:58:34.968Z,97053.47
2022-08-04T22:01:06.079Z,97055.66
2022-08-04T22:03:52.295Z,97054.88
2022-08-04T22:06:28.076Z,97057.81
2022-08-04T22:08:56.461Z,97070.56
2022-08-04T22:11:48.802Z,97079.19
2022-08-04T22:14:17.525Z,97084.88
2022-08-04T22:16:56.414Z,97085.00
2022-08-04T22:19:25.138Z,97083.38
2022-08-04T22:22:06.715Z,97089.66
2022-08-04T22:24:36.112Z,97086.19
2022-08-04T22:27:03.087Z,97086.50
2022-08-04T22:29:47.354Z,97090.56
2022-08-04T22:32:14.053Z,97099.22
2022-08-04T22:34:45.599Z,97095.16
2022-08-04T22:37:19.728Z,97103.97
2022-08-04T22:39:56.678Z,97098.28
2022-08-04T22:42:23.891Z,97102.34
2022-08-04T22:44:50.690Z,97095.03
2022-08-04T22:47:23.485Z,97094.22
2022-08-04T22:49:56.532Z,97087.53
2022-08-04T22:52:37.238Z,97083.59
2022-08-04T22:55:22.250Z,97079.75
2022-08-04T22:58:05.007Z,97070.56
2022-08-04T23:00:35.732Z,97069.09
2022-08-04T23:03:02.310Z,97067.72
2022-08-04T23:05:35.927Z,97058.88
2022-08-04T23:08:04.136Z,97070.25
2022-08-04T23:10:32.227Z,97068.13
2022-08-04T23:12:59.658Z,97069.69
2022-08-04T23:15:33.735Z,97074.84
2022-08-04T23:18:00.480Z,97080.47
2022-08-04T23:20:33.117Z,97080.97
2022-08-04T23:23:14.712Z,97072.63
2022-08-04T23:26:07.367Z,97076.09
2022-08-04T23:28:31.071Z,97062.31
2022-08-04T23:30:57.609Z,97059.38
2022-08-04T23:33:24.201Z,97069.84
2022-08-04T23:36:10.715Z,97060.34
2022-08-04T23:38:39.249Z,97053.34
2022-08-04T23:41:13.274Z,97062.81
2022-08-04T23:43:55.230Z,97051.28
2022-08-04T23:46:22.807Z,97054.53
2022-08-04T23:48:49.591Z,97076.72
2022-08-04T23:51:16.544Z,97089.13
2022-08-04T23:54:03.274Z,97064.75
2022-08-04T23:56:32.403Z,97047.97
2022-08-04T23:59:00.130Z,96975.50
